Time;durP1;ratioP1;P1;durP2;ratioP2;P2;SDS_P1;SDS_P2;PMS_P1;PMS_P2;Temp;Humidity;BMP_temperature;BMP_pressure;BME280_temperature;BME280_humidity;BME280_pressure;Samples;Min_cycle;Max_cycle;Signal;HPM_P1;HPM_P2
2023/05/23 00:03:49;;;;;;;1.92;1.33;;;20.30;57.60;;;;;;8196585;29;20062;-80
2023/05/23 00:07:50;;;;;;;2.35;1.13;;;20.20;57.50;;;;;;8180364;29;20044;-80
2023/05/23 00:11:50;;;;;;;2.25;1.23;;;20.30;57.60;;;;;;8196260;28;20564;-81
2023/05/23 00:15:51;;;;;;;1.77;1.00;;;20.20;57.50;;;;;;8196136;29;20046;-80
2023/05/23 00:19:52;;;;;;;1.08;0.98;;;20.20;57.50;;;;;;8212326;28;20027;-80
2023/05/23 00:23:53;;;;;;;1.27;0.80;;;20.20;57.60;;;;;;8198013;28;20027;-81
2023/05/23 00:27:53;;;;;;;2.35;1.30;;;20.20;57.50;;;;;;8211987;28;20152;-81
2023/05/23 00:31:54;;;;;;;1.45;1.02;;;20.20;57.50;;;;;;8227934;28;20412;-80
2023/05/23 00:35:55;;;;;;;1.00;0.82;;;20.20;57.50;;;;;;8211954;28;20051;-80
2023/05/23 00:39:55;;;;;;;1.77;1.33;;;20.20;57.50;;;;;;8227660;28;20050;-80
2023/05/23 00:43:58;;;;;;;1.92;1.10;;;20.20;57.50;;;;;;8211246;28;20076;-80
2023/05/23 00:48:00;;;;;;;2.20;1.02;;;20.20;57.50;;;;;;8232743;28;20035;-80
2023/05/23 00:52:02;;;;;;;1.88;1.00;;;20.20;57.50;;;;;;8234231;28;20035;-80
2023/05/23 00:56:03;;;;;;;1.40;1.05;;;20.20;57.50;;;;;;8186062;28;20125;-80
2023/05/23 01:00:07;;;;;;;1.45;0.90;;;20.20;57.50;;;;;;8233443;28;20129;-80
2023/05/23 01:04:08;;;;;;;1.00;0.90;;;20.20;57.50;;;;;;8233743;28;20373;-80
2023/05/23 01:08:09;;;;;;;1.52;1.20;;;20.20;57.50;;;;;;8233326;28;20027;-81
2023/05/23 01:12:12;;;;;;;1.40;1.20;;;20.20;57.50;;;;;;8234678;28;20031;-80
2023/05/23 01:16:33;;;;;;;1.30;1.10;;;20.20;57.50;;;;;;8232728;28;20035;-80
2023/05/23 01:20:44;;;;;;;1.65;0.82;;;20.20;57.50;;;;;;8232992;28;20039;-80
2023/05/23 01:25:03;;;;;;;1.55;1.17;;;20.20;57.50;;;;;;8216595;28;20042;-80
2023/05/23 01:29:12;;;;;;;1.17;0.90;;;20.20;57.50;;;;;;8232825;28;20484;-81
2023/05/23 01:33:16;;;;;;;1.00;0.90;;;20.20;57.50;;;;;;8232714;28;20579;-80
2023/05/23 01:37:18;;;;;;;2.03;1.13;;;20.20;57.40;;;;;;8217638;28;20054;-78
2023/05/23 01:41:19;;;;;;;1.40;1.30;;;20.20;57.40;;;;;;8218476;28;20039;-81
2023/05/23 01:45:20;;;;;;;1.50;1.20;;;20.20;57.40;;;;;;8235420;28;20038;-80
2023/05/23 01:49:23;;;;;;;0.90;0.80;;;20.20;57.40;;;;;;8229986;28;20030;-80
2023/05/23 01:53:36;;;;;;;0.95;0.95;;;20.20;57.40;;;;;;8259139;28;20039;-80
2023/05/23 01:57:37;;;;;;;1.05;0.88;;;20.20;57.40;;;;;;8274759;28;20042;-80
2023/05/23 02:01:38;;;;;;;1.48;1.10;;;20.20;57.40;;;;;;8275121;28;20037;-81
2023/05/23 02:05:39;;;;;;;1.33;1.08;;;20.20;57.40;;;;;;8275677;28;20026;-81
2023/05/23 02:09:39;;;;;;;1.23;1.00;;;20.10;57.40;;;;;;8242990;28;20023;-81
2023/05/23 02:13:40;;;;;;;1.83;0.85;;;20.20;57.50;;;;;;8258673;28;20015;-80
2023/05/23 02:17:41;;;;;;;1.10;0.95;;;20.20;57.50;;;;;;8211626;28;20035;-81
2023/05/23 02:21:42;;;;;;;0.88;0.88;;;20.20;57.50;;;;;;8233508;28;20516;-80
2023/05/23 02:25:43;;;;;;;1.10;1.00;;;20.20;57.50;;;;;;8233100;28;20453;-80
2023/05/23 02:29:46;;;;;;;1.02;0.93;;;20.10;57.50;;;;;;8231409;28;20035;-81
2023/05/23 02:33:47;;;;;;;1.23;1.13;;;20.20;57.50;;;;;;8198888;28;20473;-81
2023/05/23 02:37:48;;;;;;;0.80;0.80;;;20.10;57.50;;;;;;8199921;28;20555;-81
2023/05/23 02:41:48;;;;;;;1.45;1.08;;;20.10;57.50;;;;;;8214483;28;20130;-81
2023/05/23 02:45:49;;;;;;;0.80;0.80;;;20.10;57.50;;;;;;8214808;28;20118;-80
2023/05/23 02:49:50;;;;;;;1.60;1.08;;;20.10;57.50;;;;;;8214442;28;20129;-81
2023/05/23 02:53:51;;;;;;;1.02;0.82;;;20.10;57.50;;;;;;8198935;28;20031;-81
2023/05/23 02:57:51;;;;;;;1.13;1.02;;;20.10;57.50;;;;;;8198207;28;20031;-81
2023/05/23 03:01:52;;;;;;;1.50;1.10;;;20.10;57.50;;;;;;8214449;28;20090;-81
2023/05/23 03:05:53;;;;;;;1.35;1.00;;;20.20;57.60;;;;;;8214110;28;20200;-81
2023/05/23 03:09:54;;;;;;;1.08;0.98;;;20.10;57.50;;;;;;8212868;28;20117;-81
2023/05/23 03:13:55;;;;;;;1.05;0.95;;;20.20;57.50;;;;;;8197760;28;20050;-81
2023/05/23 03:17:55;;;;;;;1.05;0.80;;;20.10;57.40;;;;;;8229464;28;20035;-81
2023/05/23 03:21:56;;;;;;;1.27;0.90;;;20.20;57.40;;;;;;8197757;28;20039;-81
2023/05/23 03:25:58;;;;;;;2.05;0.85;;;20.10;57.30;;;;;;8229036;28;20037;-81
2023/05/23 03:29:59;;;;;;;1.38;1.27;;;20.20;57.40;;;;;;8181693;28;20031;-81
2023/05/23 03:34:00;;;;;;;1.10;0.90;;;20.10;57.30;;;;;;8230672;28;20034;-81
2023/05/23 03:38:00;;;;;;;1.05;0.95;;;20.20;57.40;;;;;;8212671;28;20050;-80
2023/05/23 03:42:01;;;;;;;1.35;1.00;;;20.10;57.30;;;;;;8212851;28;20564;-80
2023/05/23 03:46:02;;;;;;;1.17;0.93;;;20.10;57.90;;;;;;8228744;28;20031;-81
2023/05/23 03:50:03;;;;;;;1.27;1.08;;;20.10;57.40;;;;;;8212621;28;20038;-81
2023/05/23 03:54:03;;;;;;;1.25;1.15;;;20.10;57.40;;;;;;8213595;28;20042;-81
2023/05/23 03:58:05;;;;;;;0.90;0.90;;;20.10;57.50;;;;;;8198029;29;20083;-81
2023/05/23 04:02:05;;;;;;;1.08;0.98;;;20.10;58.00;;;;;;8164907;29;20086;-81
2023/05/23 04:06:06;;;;;;;1.65;1.13;;;20.10;57.50;;;;;;8196504;29;20042;-81
2023/05/23 04:10:08;;;;;;;1.17;1.00;;;20.10;57.70;;;;;;8196740;29;20035;-81
2023/05/23 04:14:09;;;;;;;1.00;0.80;;;20.10;57.80;;;;;;8180523;29;20404;-81
2023/05/23 04:18:10;;;;;;;1.17;1.05;;;20.10;57.70;;;;;;8164935;29;20035;-81
2023/05/23 04:22:11;;;;;;;0.98;0.90;;;20.20;57.50;;;;;;8187724;28;20039;-80
2023/05/23 04:26:11;;;;;;;1.20;0.90;;;20.20;57.40;;;;;;8234734;28;20031;-81
2023/05/23 04:30:13;;;;;;;1.30;1.20;;;20.20;57.30;;;;;;8236036;28;20497;-81
2023/05/23 04:34:13;;;;;;;1.48;1.20;;;20.20;57.20;;;;;;8235729;28;20043;-80
2023/05/23 04:38:14;;;;;;;1.20;1.10;;;20.30;57.30;;;;;;8218425;28;20596;-81
2023/05/23 04:42:15;;;;;;;1.38;1.15;;;20.30;57.20;;;;;;8234432;28;20054;-81
2023/05/23 04:46:15;;;;;;;0.85;0.80;;;20.30;57.30;;;;;;8202636;28;20511;-81
2023/05/23 04:50:17;;;;;;;1.13;0.90;;;20.30;57.30;;;;;;8202026;28;20042;-81
2023/05/23 04:54:18;;;;;;;1.17;1.08;;;20.20;57.20;;;;;;8202269;28;20370;-81
2023/05/23 04:58:18;;;;;;;1.10;1.00;;;20.30;57.30;;;;;;8203547;29;20035;-81
2023/05/23 05:02:19;;;;;;;1.02;0.93;;;20.20;57.20;;;;;;8185501;29;20514;-81
2023/05/23 05:06:21;;;;;;;1.27;1.00;;;20.20;57.40;;;;;;8217910;28;20119;-80
2023/05/23 05:10:22;;;;;;;1.05;0.93;;;20.20;57.40;;;;;;8185786;29;20490;-81
2023/05/23 05:14:22;;;;;;;1.40;1.30;;;20.30;57.30;;;;;;8185321;29;20438;-81
2023/05/23 05:18:25;;;;;;;1.17;1.00;;;20.30;57.20;;;;;;8202623;29;20037;-81
2023/05/23 05:22:26;;;;;;;1.02;0.90;;;20.30;57.10;;;;;;8222998;28;20045;-81
2023/05/23 05:26:27;;;;;;;0.80;0.80;;;20.30;57.10;;;;;;8232800;28;20062;-81
2023/05/23 05:30:29;;;;;;;1.13;1.00;;;20.30;57.20;;;;;;8216590;28;20749;-81
2023/05/23 05:34:30;;;;;;;1.02;0.90;;;20.30;57.20;;;;;;8216001;28;20099;-81
2023/05/23 05:38:30;;;;;;;1.20;1.00;;;20.30;57.20;;;;;;8232093;28;20520;-81
2023/05/23 05:42:31;;;;;;;3.08;1.20;;;20.30;57.20;;;;;;8184496;28;20042;-81
2023/05/23 05:46:32;;;;;;;1.13;0.98;;;20.20;57.50;;;;;;8200749;28;20513;-81
2023/05/23 05:50:32;;;;;;;1.67;1.30;;;20.30;57.20;;;;;;8232190;28;20140;-81
2023/05/23 05:54:34;;;;;;;1.13;0.90;;;20.30;57.80;;;;;;8232457;28;20055;-80
2023/05/23 05:58:35;;;;;;;1.10;1.00;;;20.20;57.20;;;;;;8231855;28;20045;-81
2023/05/23 06:02:36;;;;;;;1.40;1.02;;;20.30;57.30;;;;;;8231431;28;20035;-81
2023/05/23 06:06:36;;;;;;;1.60;1.23;;;20.20;57.20;;;;;;8216114;28;20030;-81
2023/05/23 06:10:40;;;;;;;1.17;1.07;;;20.20;57.20;;;;;;8199313;28;20292;-81
2023/05/23 06:14:41;;;;;;;1.52;1.10;;;20.20;57.20;;;;;;8232117;28;20282;-81
2023/05/23 06:18:41;;;;;;;1.50;0.90;;;20.20;57.80;;;;;;8233058;28;20030;-80
2023/05/23 06:22:42;;;;;;;1.05;0.90;;;20.20;57.30;;;;;;8231457;28;20441;-81
2023/05/23 06:26:43;;;;;;;1.30;1.00;;;20.20;57.30;;;;;;8230979;28;20034;-80
2023/05/23 06:30:43;;;;;;;1.20;1.10;;;20.20;57.20;;;;;;8214917;28;20625;-80
2023/05/23 06:34:44;;;;;;;1.33;1.10;;;20.20;57.30;;;;;;8214769;28;20046;-81
2023/05/23 06:38:46;;;;;;;1.27;1.17;;;20.20;57.30;;;;;;8198503;28;20063;-81
2023/05/23 06:42:46;;;;;;;1.75;1.20;;;20.20;57.30;;;;;;8231680;28;20058;-80
2023/05/23 06:46:47;;;;;;;1.42;1.20;;;20.20;57.30;;;;;;8230199;28;20030;-80
2023/05/23 06:50:48;;;;;;;1.20;1.00;;;20.20;57.40;;;;;;8230683;28;20034;-80
2023/05/23 06:54:50;;;;;;;1.30;1.17;;;20.20;57.40;;;;;;8214684;28;20487;-81
2023/05/23 06:58:50;;;;;;;1.30;1.10;;;20.20;57.80;;;;;;8199543;29;20400;-81
2023/05/23 07:02:51;;;;;;;1.30;1.20;;;20.30;57.20;;;;;;8198637;29;20102;-81
2023/05/23 07:06:52;;;;;;;1.23;1.13;;;20.30;57.10;;;;;;8182368;29;20066;-81
2023/05/23 07:10:53;;;;;;;;;;;20.30;57.10;;;;;;8182197;29;20489;-81
2023/05/23 07:14:54;;;;;;;1.20;1.10;;;20.30;57.00;;;;;;8197643;29;19985;-81
2023/05/23 07:18:54;;;;;;;0.90;0.90;;;20.30;57.00;;;;;;8181775;29;20047;-81
2023/05/23 07:22:56;;;;;;;1.23;1.05;;;20.30;57.00;;;;;;8207763;28;20063;-81
2023/05/23 07:26:56;;;;;;;;;;;20.30;57.00;;;;;;8229549;28;20030;-80
2023/05/23 07:30:57;;;;;;;1.33;1.00;;;20.30;57.00;;;;;;8229155;28;19910;-81
2023/05/23 07:34:58;;;;;;;1.00;1.00;;;20.30;57.00;;;;;;8197489;28;20073;-81
2023/05/23 07:38:58;;;;;;;0.90;0.90;;;20.30;57.00;;;;;;8230182;28;20390;-80
2023/05/23 07:42:59;;;;;;;1.15;1.05;;;20.30;57.10;;;;;;8228256;28;20527;-81
2023/05/23 07:47:00;;;;;;;2.13;1.17;;;20.30;57.10;;;;;;8229214;28;20037;-81
2023/05/23 07:51:01;;;;;;;1.50;1.25;;;20.30;57.10;;;;;;8229091;28;20131;-81
2023/05/23 07:55:02;;;;;;;2.08;1.30;;;20.30;57.10;;;;;;8228000;28;20031;-81
2023/05/23 07:59:02;;;;;;;1.13;1.02;;;20.20;57.10;;;;;;8196121;28;20034;-80
2023/05/23 08:03:03;;;;;;;1.75;1.30;;;20.30;57.20;;;;;;8196869;28;20031;-80
2023/05/23 08:07:04;;;;;;;1.65;1.30;;;20.20;57.10;;;;;;8196325;28;20039;-81
2023/05/23 08:11:05;;;;;;;;;;;20.20;57.10;;;;;;8196750;28;20501;-80
2023/05/23 08:15:07;;;;;;;1.10;1.00;;;20.20;57.20;;;;;;8228566;28;20295;-80
2023/05/23 08:19:07;;;;;;;1.25;1.15;;;20.20;57.20;;;;;;8212240;28;20039;-80
2023/05/23 08:23:08;;;;;;;1.30;1.10;;;20.20;57.20;;;;;;8228446;28;20092;-80
2023/05/23 08:27:09;;;;;;;1.33;1.00;;;20.20;57.20;;;;;;8228021;28;20035;-81
2023/05/23 08:31:10;;;;;;;1.63;1.10;;;20.20;57.20;;;;;;8228128;28;20045;-81
2023/05/23 08:35:11;;;;;;;1.30;1.20;;;20.20;57.30;;;;;;8227961;28;20397;-80
2023/05/23 08:39:11;;;;;;;1.48;1.20;;;20.20;57.30;;;;;;8227848;28;20116;-81
2023/05/23 08:43:12;;;;;;;1.52;1.10;;;20.20;57.30;;;;;;8227797;28;20392;-80
2023/05/23 08:47:16;;;;;;;0.73;0.73;;;20.20;57.30;;;;;;8195630;28;20155;-81
2023/05/23 08:51:17;;;;;;;1.75;1.17;;;20.20;57.30;;;;;;8228725;28;20030;-81
2023/05/23 08:55:19;;;;;;;1.30;1.20;;;20.20;57.30;;;;;;8227630;28;20031;-80
2023/05/23 08:59:20;;;;;;;1.20;1.10;;;20.20;57.50;;;;;;8228703;28;20507;-81
2023/05/23 09:03:22;;;;;;;1.25;1.00;;;20.10;57.30;;;;;;8227664;28;20039;-80
2023/05/23 09:07:22;;;;;;;1.35;1.00;;;20.20;57.30;;;;;;8229428;28;20045;-80
2023/05/23 09:11:23;;;;;;;1.55;1.20;;;20.20;57.30;;;;;;8233698;28;20031;-81
2023/05/23 09:15:24;;;;;;;;;;;20.20;57.40;;;;;;8233815;28;20039;-80
2023/05/23 09:19:25;;;;;;;1.27;1.13;;;20.20;57.30;;;;;;8217291;28;19917;-80
2023/05/23 09:23:29;;;;;;;1.65;1.20;;;20.10;57.30;;;;;;8217261;28;20413;-80
2023/05/23 09:27:30;;;;;;;1.20;1.00;;;20.10;57.40;;;;;;8233025;28;20027;-81
2023/05/23 09:31:31;;;;;;;1.38;1.23;;;20.20;57.40;;;;;;8216776;28;20046;-80
2023/05/23 09:35:32;;;;;;;;;;;20.10;57.30;;;;;;8233511;28;20038;-81
2023/05/23 09:39:37;;;;;;;1.73;1.43;;;20.10;57.30;;;;;;8232907;28;20052;-80
2023/05/23 09:44:00;;;;;;;1.48;1.15;;;20.10;57.30;;;;;;8234368;28;20085;-80
2023/05/23 09:48:00;;;;;;;1.23;1.00;;;20.20;57.40;;;;;;8235143;28;20536;-81
2023/05/23 09:52:01;;;;;;;1.25;1.00;;;20.10;57.30;;;;;;8220112;28;20421;-80
2023/05/23 09:56:03;;;;;;;1.23;1.08;;;20.10;57.30;;;;;;8261707;28;20023;-81
2023/05/23 10:00:05;;;;;;;1.75;1.27;;;20.10;57.30;;;;;;8258384;28;20025;-80
2023/05/23 10:04:08;;;;;;;1.33;1.20;;;20.10;57.30;;;;;;8259569;28;20029;-80
2023/05/23 10:08:25;;;;;;;1.60;1.05;;;20.10;57.30;;;;;;8274777;28;20045;-81
2023/05/23 10:12:31;;;;;;;1.63;1.10;;;20.20;57.30;;;;;;8276031;28;20037;-81
2023/05/23 10:16:47;;;;;;;1.20;1.10;;;20.10;57.30;;;;;;8275099;28;20023;-80
2023/05/23 10:20:51;;;;;;;1.88;1.10;;;20.10;57.30;;;;;;8263076;28;20049;-80
2023/05/23 10:24:52;;;;;;;1.05;0.95;;;20.10;57.30;;;;;;8216652;28;20031;-80
2023/05/23 10:28:54;;;;;;;;;;;20.20;57.40;;;;;;8200670;28;20027;-80
2023/05/23 10:32:55;;;;;;;;;;;20.10;57.30;;;;;;8200143;29;19977;-81
2023/05/23 10:37:06;;;;;;;1.27;1.17;;;20.10;57.30;;;;;;8199300;28;19914;-80
2023/05/23 10:41:27;;;;;;;1.27;1.17;;;20.10;57.40;;;;;;8199014;29;20122;-80
2023/05/23 10:45:28;;;;;;;1.80;1.20;;;20.10;57.40;;;;;;8200253;29;20466;-81
2023/05/23 10:49:38;;;;;;;1.00;0.90;;;20.10;57.40;;;;;;8199053;28;20437;-81
2023/05/23 10:53:45;;;;;;;1.40;1.10;;;20.20;57.40;;;;;;8230535;28;20038;-81
2023/05/23 10:58:06;;;;;;;1.55;1.30;;;20.10;57.40;;;;;;8230034;28;20038;-81
2023/05/23 11:02:16;;;;;;;1.60;1.27;;;20.10;57.30;;;;;;8213897;28;20039;-82
2023/05/23 11:06:34;;;;;;;1.52;1.15;;;20.10;57.90;;;;;;8230104;28;20412;-82
2023/05/23 11:11:00;;;;;;;1.83;1.10;;;20.10;57.30;;;;;;8230151;28;20067;-80
2023/05/23 11:15:00;;;;;;;1.42;1.15;;;20.20;57.40;;;;;;8229592;28;20043;-80
2023/05/23 11:19:20;;;;;;;1.27;1.17;;;20.10;57.30;;;;;;8197704;28;20035;-80
2023/05/23 11:23:23;;;;;;;1.63;1.35;;;20.10;57.90;;;;;;8229753;28;20042;-80
2023/05/23 11:27:34;;;;;;;1.55;1.30;;;20.10;57.30;;;;;;8229272;28;20074;-80
2023/05/23 11:31:39;;;;;;;1.45;1.20;;;20.10;57.30;;;;;;8228397;28;20066;-80
2023/05/23 11:35:41;;;;;;;1.08;0.98;;;20.10;57.30;;;;;;8230088;28;20062;-80
2023/05/23 11:39:42;;;;;;;1.58;1.05;;;20.10;57.30;;;;;;8228773;28;20328;-80
2023/05/23 11:43:52;;;;;;;2.00;1.30;;;20.10;57.30;;;;;;8212541;28;20046;-79
2023/05/23 11:47:53;;;;;;;1.45;1.17;;;20.10;57.30;;;;;;8197123;28;20780;-80
2023/05/23 11:51:53;;;;;;;1.95;1.33;;;20.10;57.30;;;;;;8228801;28;20487;-80
2023/05/23 11:55:57;;;;;;;1.40;1.17;;;20.10;57.30;;;;;;8228792;28;20493;-80
2023/05/23 11:59:58;;;;;;;1.30;1.20;;;20.10;57.30;;;;;;8229954;28;20030;-81
2023/05/23 12:03:58;;;;;;;1.30;1.20;;;20.10;57.30;;;;;;8196669;28;20034;-80
2023/05/23 12:07:59;;;;;;;1.45;1.35;;;20.10;57.30;;;;;;8212422;28;20035;-80
2023/05/23 12:12:01;;;;;;;1.35;1.17;;;20.10;57.30;;;;;;8212712;28;20560;-80
2023/05/23 12:16:03;;;;;;;1.30;1.17;;;20.10;57.40;;;;;;8196558;28;20034;-80
2023/05/23 12:20:07;;;;;;;1.25;1.15;;;20.10;57.40;;;;;;8212230;28;20089;-80
2023/05/23 12:24:26;;;;;;;1.67;1.50;;;20.10;57.30;;;;;;8228855;28;20593;-80
2023/05/23 12:28:35;;;;;;;1.20;1.10;;;20.10;57.30;;;;;;8229287;28;20061;-80
2023/05/23 12:32:40;;;;;;;2.22;1.33;;;20.10;57.30;;;;;;8227972;28;20444;-80
2023/05/23 12:36:41;;;;;;;2.10;1.25;;;20.10;57.30;;;;;;8227983;28;20054;-80
2023/05/23 12:40:43;;;;;;;1.65;1.30;;;20.10;57.30;;;;;;8229199;28;20063;-80
2023/05/23 12:44:44;;;;;;;1.38;1.27;;;20.10;57.30;;;;;;8217426;28;20038;-80
2023/05/23 12:48:46;;;;;;;2.00;1.80;;;20.10;57.40;;;;;;8235908;28;20039;-80
2023/05/23 12:52:46;;;;;;;2.15;1.58;;;20.10;57.30;;;;;;8218104;28;20400;-80
2023/05/23 12:56:47;;;;;;;1.73;1.35;;;20.10;57.30;;;;;;8235328;28;20058;-80
2023/05/23 13:00:48;;;;;;;1.83;1.60;;;20.10;57.30;;;;;;8217374;28;20147;-80
2023/05/23 13:04:48;;;;;;;1.55;1.35;;;20.20;57.40;;;;;;8233684;28;20448;-80
2023/05/23 13:08:50;;;;;;;1.85;1.15;;;20.10;57.30;;;;;;8233641;28;20027;-80
2023/05/23 13:12:50;;;;;;;2.22;1.55;;;20.10;57.30;;;;;;8217984;28;20031;-80
2023/05/23 13:16:51;;;;;;;1.27;1.17;;;20.10;57.30;;;;;;8233452;28;20507;-80
2023/05/23 13:20:52;;;;;;;1.20;1.10;;;20.20;57.30;;;;;;8233434;28;20156;-80
2023/05/23 13:24:53;;;;;;;1.95;1.40;;;20.20;57.20;;;;;;8201288;28;20400;-80
2023/05/23 13:28:53;;;;;;;1.25;1.13;;;20.20;57.20;;;;;;8232643;28;20117;-80
2023/05/23 13:32:54;;;;;;;1.90;1.70;;;20.20;57.20;;;;;;8216454;28;20054;-80
2023/05/23 13:36:55;;;;;;;2.10;1.55;;;20.20;57.30;;;;;;8232687;28;20202;-80
2023/05/23 13:40:55;;;;;;;1.95;1.25;;;20.10;57.30;;;;;;8200275;28;20047;-80
2023/05/23 13:44:56;;;;;;;1.40;1.27;;;20.20;57.30;;;;;;8232529;28;20027;-80
2023/05/23 13:48:57;;;;;;;2.63;1.67;;;20.20;57.30;;;;;;8216480;28;20536;-80
2023/05/23 13:52:58;;;;;;;1.75;1.45;;;20.20;57.30;;;;;;8199266;28;20149;-80
2023/05/23 13:57:00;;;;;;;2.63;2.05;;;20.20;57.20;;;;;;8215962;28;20042;-80
2023/05/23 14:01:01;;;;;;;1.33;1.23;;;20.20;57.20;;;;;;8248045;28;20031;-80
2023/05/23 14:05:02;;;;;;;1.77;1.38;;;20.20;57.20;;;;;;8215688;28;20501;-80
2023/05/23 14:09:04;;;;;;;2.17;1.60;;;20.20;57.20;;;;;;8232102;28;20551;-80
2023/05/23 14:13:08;;;;;;;2.60;1.70;;;20.20;57.20;;;;;;8232880;28;20500;-80
2023/05/23 14:17:14;;;;;;;1.77;1.35;;;20.20;57.20;;;;;;8232531;28;20027;-80
2023/05/23 14:21:15;;;;;;;1.70;1.50;;;20.20;57.20;;;;;;8231787;28;20056;-79
2023/05/23 14:25:16;;;;;;;2.53;1.60;;;20.20;57.20;;;;;;8215792;28;20043;-80
2023/05/23 14:29:17;;;;;;;2.90;1.60;;;20.20;57.20;;;;;;8214968;28;20474;-80
2023/05/23 14:33:18;;;;;;;1.95;1.73;;;20.20;57.10;;;;;;8199393;29;20397;-80
2023/05/23 14:37:18;;;;;;;2.28;1.40;;;20.30;57.20;;;;;;8182989;28;20051;-80
2023/05/23 14:41:20;;;;;;;2.10;1.52;;;20.20;57.10;;;;;;8214761;28;20044;-80
2023/05/23 14:45:21;;;;;;;1.40;1.30;;;20.20;57.10;;;;;;8199060;29;20075;-80
2023/05/23 14:49:21;;;;;;;2.13;1.77;;;20.20;57.10;;;;;;8182903;29;20023;-80
2023/05/23 14:53:22;;;;;;;1.90;1.70;;;20.20;57.10;;;;;;8212599;28;20119;-80
2023/05/23 14:57:23;;;;;;;1.67;1.50;;;20.20;57.10;;;;;;8230559;28;20067;-80
2023/05/23 15:01:24;;;;;;;2.15;1.60;;;20.20;57.10;;;;;;8230016;28;20043;-80
2023/05/23 15:05:25;;;;;;;2.03;1.65;;;20.20;57.60;;;;;;8229939;28;20294;-80
2023/05/23 15:09:27;;;;;;;1.70;1.38;;;20.20;57.10;;;;;;8213950;28;20429;-80
2023/05/23 15:13:27;;;;;;;2.25;1.50;;;20.20;57.10;;;;;;8213835;28;20547;-80
2023/05/23 15:17:32;;;;;;;1.80;1.50;;;20.20;57.20;;;;;;8213522;28;20416;-80
2023/05/23 15:21:33;;;;;;;2.25;1.60;;;20.20;57.20;;;;;;8230854;28;20393;-80
2023/05/23 15:25:34;;;;;;;2.13;1.77;;;20.20;57.20;;;;;;8166651;29;20042;-80
2023/05/23 15:29:38;;;;;;;1.73;1.48;;;20.20;57.20;;;;;;8149908;29;20031;-80
2023/05/23 15:33:39;;;;;;;1.70;1.40;;;20.20;57.20;;;;;;8213371;28;20122;-80
2023/05/23 15:37:41;;;;;;;2.55;1.70;;;20.20;57.20;;;;;;8182267;28;20106;-80
2023/05/23 15:41:42;;;;;;;2.35;2.00;;;20.20;57.20;;;;;;8196758;29;20130;-80
2023/05/23 15:45:44;;;;;;;2.05;1.65;;;20.20;57.20;;;;;;8181844;29;20098;-80
2023/05/23 15:49:45;;;;;;;2.08;1.52;;;20.20;57.20;;;;;;8197311;29;20027;-80
2023/05/23 15:53:45;;;;;;;1.88;1.60;;;20.20;57.20;;;;;;8213162;28;20035;-80
2023/05/23 15:57:46;;;;;;;1.73;1.55;;;20.20;57.20;;;;;;8228799;28;20031;-80
2023/05/23 16:01:47;;;;;;;2.72;1.73;;;20.20;57.20;;;;;;8196485;28;20062;-80
2023/05/23 16:05:47;;;;;;;2.10;1.75;;;20.20;57.20;;;;;;8229813;28;20055;-80
2023/05/23 16:09:48;;;;;;;1.42;1.33;;;20.20;57.20;;;;;;8229666;28;20031;-80
2023/05/23 16:13:49;;;;;;;1.85;1.58;;;20.20;57.20;;;;;;8229918;28;20131;-80
2023/05/23 16:17:50;;;;;;;1.80;1.70;;;20.20;57.20;;;;;;8227436;28;20086;-80
2023/05/23 16:21:50;;;;;;;1.73;1.42;;;20.20;57.10;;;;;;8228356;28;20039;-80
2023/05/23 16:25:52;;;;;;;2.43;1.77;;;20.20;57.10;;;;;;8212158;28;20023;-80
2023/05/23 16:29:52;;;;;;;;;;;20.10;57.10;;;;;;8212292;28;20293;-80
2023/05/23 16:33:54;;;;;;;2.20;1.53;;;20.20;57.10;;;;;;8228573;28;20356;-80
2023/05/23 16:37:55;;;;;;;1.60;1.50;;;20.20;57.20;;;;;;8262795;28;20060;-80
2023/05/23 16:41:55;;;;;;;2.70;1.85;;;20.10;57.10;;;;;;8276080;28;20038;-79
2023/05/23 16:45:56;;;;;;;1.63;1.40;;;20.20;57.20;;;;;;8260486;28;20042;-80
2023/05/23 16:49:56;;;;;;;1.85;1.48;;;20.10;57.10;;;;;;8276615;28;20359;-80
2023/05/23 16:53:57;;;;;;;2.40;1.98;;;20.20;57.20;;;;;;8276171;28;20038;-80
2023/05/23 16:57:58;;;;;;;7.15;4.47;;;20.20;56.90;;;;;;8276171;28;20022;-82
2023/05/23 17:01:58;;;;;;;7.35;4.38;;;20.20;56.00;;;;;;8291658;28;20054;-82
2023/05/23 17:06:00;;;;;;;5.45;4.50;;;20.20;55.60;;;;;;8260819;28;20030;-80
2023/05/23 17:10:00;;;;;;;;;;;20.30;55.40;;;;;;8276590;28;20066;-80
2023/05/23 17:14:01;;;;;;;6.17;4.50;;;20.30;55.30;;;;;;8243370;28;19941;-82
2023/05/23 17:18:02;;;;;;;5.68;4.50;;;20.30;55.20;;;;;;8243514;28;20042;-82
2023/05/23 17:22:03;;;;;;;7.35;4.32;;;20.30;55.00;;;;;;8257871;28;20039;-81
2023/05/23 17:26:04;;;;;;;7.97;4.00;;;20.30;55.00;;;;;;8259500;28;20489;-80
2023/05/23 17:30:05;;;;;;;6.30;4.15;;;20.40;55.00;;;;;;8262311;28;20070;-80
2023/05/23 17:34:06;;;;;;;4.95;3.63;;;20.40;55.10;;;;;;8299059;28;20038;-80
2023/05/23 17:38:07;;;;;;;6.03;4.13;;;20.40;55.40;;;;;;8211945;28;20057;-81
2023/05/23 17:42:07;;;;;;;7.25;3.83;;;20.40;55.20;;;;;;8201177;28;20488;-80
2023/05/23 17:46:08;;;;;;;5.05;3.50;;;20.40;55.00;;;;;;8203091;29;20031;-81
2023/05/23 17:50:10;;;;;;;5.53;3.92;;;20.40;55.40;;;;;;8186840;29;20086;-79
2023/05/23 17:54:10;;;;;;;6.07;4.20;;;20.50;55.80;;;;;;8217683;28;20015;-82
2023/05/23 17:58:11;;;;;;;7.28;4.07;;;20.50;56.20;;;;;;8249207;28;20034;-81
2023/05/23 18:02:12;;;;;;;8.82;4.50;;;20.60;56.40;;;;;;8274131;28;20027;-83
2023/05/23 18:06:12;;;;;;;8.27;4.75;;;20.60;56.60;;;;;;8227709;28;20090;-81
2023/05/23 18:10:13;;;;;;;8.55;5.18;;;20.70;56.30;;;;;;8258834;28;20038;-79
2023/05/23 18:14:14;;;;;;;7.57;5.15;;;20.70;56.00;;;;;;8243670;28;20070;-79
2023/05/23 18:18:16;;;;;;;11.68;5.90;;;20.70;55.70;;;;;;8276039;28;20015;-79
2023/05/23 18:22:18;;;;;;;13.93;6.18;;;20.80;55.70;;;;;;8275866;28;20034;-79
2023/05/23 18:26:20;;;;;;;16.55;7.35;;;20.80;55.60;;;;;;8269830;28;20042;-81
2023/05/23 18:30:21;;;;;;;16.42;7.47;;;20.80;55.30;;;;;;8186193;29;20027;-78
2023/05/23 18:34:21;;;;;;;15.52;7.18;;;20.80;55.00;;;;;;8215095;28;20042;-80
2023/05/23 18:38:22;;;;;;;18.63;8.65;;;20.90;55.10;;;;;;8215211;28;20078;-83
2023/05/23 18:42:23;;;;;;;17.23;8.45;;;20.90;55.00;;;;;;8232852;28;20516;-81
2023/05/23 18:46:24;;;;;;;19.42;9.23;;;20.90;55.30;;;;;;8198878;28;20408;-80
2023/05/23 18:50:25;;;;;;;20.13;9.48;;;20.90;55.50;;;;;;8214384;28;20281;-80
2023/05/23 18:54:26;;;;;;;23.85;9.30;;;20.90;56.20;;;;;;8200472;28;20494;-81
2023/05/23 18:58:26;;;;;;;27.02;10.75;;;20.90;56.10;;;;;;8200167;28;20547;-81
2023/05/23 19:02:27;;;;;;;32.38;12.00;;;21.00;56.30;;;;;;8256027;28;20114;-81
2023/05/23 19:06:28;;;;;;;27.35;9.95;;;21.00;56.40;;;;;;8215401;28;20034;-80
2023/05/23 19:10:28;;;;;;;27.77;11.35;;;21.00;56.60;;;;;;8240274;28;20548;-82
2023/05/23 19:14:29;;;;;;;29.50;11.38;;;21.00;56.60;;;;;;8229093;28;20508;-81
2023/05/23 19:18:30;;;;;;;27.08;11.90;;;21.00;56.80;;;;;;8230834;28;20034;-82
2023/05/23 19:22:31;;;;;;;25.88;11.23;;;21.00;57.10;;;;;;8232006;28;20437;-82
2023/05/23 19:26:33;;;;;;;29.88;11.40;;;21.00;57.20;;;;;;8218751;28;20444;-85
2023/05/23 19:30:33;;;;;;;;;;;21.00;57.20;;;;;;8217615;28;20041;-82
2023/05/23 19:34:35;;;;;;;29.83;11.93;;;21.10;57.10;;;;;;8261719;28;19968;-80
2023/05/23 19:38:35;;;;;;;26.13;10.40;;;21.10;57.10;;;;;;8266350;28;20467;-81
2023/05/23 19:42:36;;;;;;;25.60;10.88;;;21.10;56.90;;;;;;8246747;28;20116;-82
2023/05/23 19:50:23;;;;;;;32.40;11.95;;;21.70;55.20;;;;;;8489520;27;20446;-40
2023/05/23 19:54:24;;;;;;;36.33;12.30;;;21.10;57.00;;;;;;8487474;27;20039;-41
2023/05/23 19:58:25;;;;;;;29.85;11.77;;;20.70;57.60;;;;;;8455391;28;20110;-41
2023/05/23 20:02:26;;;;;;;30.70;10.40;;;20.60;58.00;;;;;;8455685;28;20107;-41
2023/05/23 20:06:26;;;;;;;34.17;12.10;;;20.50;58.30;;;;;;8455350;28;20036;-43
2023/05/23 20:10:27;;;;;;;37.50;12.83;;;20.50;58.40;;;;;;8469145;28;20030;-40
2023/05/23 20:14:30;;;;;;;33.10;11.53;;;20.60;58.60;;;;;;8454693;28;20806;-41
2023/05/23 20:18:31;;;;;;;25.08;10.82;;;20.60;58.70;;;;;;8471487;28;20028;-40
2023/05/23 20:22:31;;;;;;;32.37;10.53;;;20.60;59.00;;;;;;8489254;27;20039;-40
2023/05/23 20:26:32;;;;;;;28.23;10.65;;;20.60;59.30;;;;;;8475824;27;20440;-40
2023/05/23 20:30:33;;;;;;;26.97;10.83;;;20.60;59.00;;;;;;8435953;28;20035;-44
2023/05/23 20:34:33;;;;;;;28.57;11.73;;;20.70;59.00;;;;;;8452875;28;20313;-45
2023/05/23 20:38:34;;;;;;;26.42;11.32;;;20.70;59.00;;;;;;8452734;28;20031;-41
2023/05/23 20:42:35;;;;;;;33.35;11.38;;;20.70;58.70;;;;;;8457661;28;20043;-41
2023/05/23 20:46:36;;;;;;;27.87;11.60;;;20.60;58.80;;;;;;8472054;27;20119;-42
2023/05/23 20:50:37;;;;;;;20.50;10.00;;;20.50;59.40;;;;;;8453337;28;20048;-40
2023/05/23 20:54:38;;;;;;;27.55;10.68;;;20.40;60.10;;;;;;8452878;27;20040;-42
2023/05/23 20:58:39;;;;;;;29.87;11.23;;;20.40;60.60;;;;;;8481482;27;20032;-46
2023/05/23 21:06:44;;;;;;;24.92;10.27;;;20.60;59.70;;;;;;8488847;27;20416;-44
2023/05/23 21:10:44;;;;;;;32.17;12.10;;;21.00;59.10;;;;;;8455608;28;20040;-46